sensor_id;sensor_type;location;lat;lon;timestamp;temperature;humidity
36652;DHT22;53334;51.976;20.144;2023-03-01T00:01:58;25.60;41.50
36652;DHT22;53334;51.976;20.144;2023-03-01T00:04:31;25.60;41.50
36652;DHT22;53334;51.976;20.144;2023-03-01T00:07:04;25.60;41.50
36652;DHT22;53334;51.976;20.144;2023-03-01T00:09:37;25.60;41.70
36652;DHT22;53334;51.976;20.144;2023-03-01T00:12:11;25.50;41.60
36652;DHT22;53334;51.976;20.144;2023-03-01T00:14:44;25.60;41.70
36652;DHT22;53334;51.976;20.144;2023-03-01T00:17:19;25.60;41.70
36652;DHT22;53334;51.976;20.144;2023-03-01T00:19:52;25.60;41.70
36652;DHT22;53334;51.976;20.144;2023-03-01T00:22:26;25.60;41.80
36652;DHT22;53334;51.976;20.144;2023-03-01T00:25:00;25.60;41.80
36652;DHT22;53334;51.976;20.144;2023-03-01T00:27:33;25.60;41.90
36652;DHT22;53334;51.976;20.144;2023-03-01T00:30:06;25.60;41.90
36652;DHT22;53334;51.976;20.144;2023-03-01T00:32:41;25.60;41.80
36652;DHT22;53334;51.976;20.144;2023-03-01T00:35:14;25.60;41.90
36652;DHT22;53334;51.976;20.144;2023-03-01T00:37:47;25.60;41.90
36652;DHT22;53334;51.976;20.144;2023-03-01T00:40:25;25.60;41.80
36652;DHT22;53334;51.976;20.144;2023-03-01T00:42:58;25.60;41.80
36652;DHT22;53334;51.976;20.144;2023-03-01T00:45:32;25.60;41.80
36652;DHT22;53334;51.976;20.144;2023-03-01T00:48:07;25.60;41.90
36652;DHT22;53334;51.976;20.144;2023-03-01T00:50:40;25.60;41.90
36652;DHT22;53334;51.976;20.144;2023-03-01T00:53:13;25.60;41.90
36652;DHT22;53334;51.976;20.144;2023-03-01T00:55:46;25.60;41.80
36652;DHT22;53334;51.976;20.144;2023-03-01T00:58:19;25.60;41.80
36652;DHT22;53334;51.976;20.144;2023-03-01T01:00:52;25.60;41.80
36652;DHT22;53334;51.976;20.144;2023-03-01T01:03:27;25.60;41.70
36652;DHT22;53334;51.976;20.144;2023-03-01T01:06:00;25.60;41.80
36652;DHT22;53334;51.976;20.144;2023-03-01T01:08:40;25.60;41.80
36652;DHT22;53334;51.976;20.144;2023-03-01T01:11:14;25.60;41.70
36652;DHT22;53334;51.976;20.144;2023-03-01T01:13:47;25.60;41.70
36652;DHT22;53334;51.976;20.144;2023-03-01T01:16:21;25.60;41.70
36652;DHT22;53334;51.976;20.144;2023-03-01T01:18:56;25.60;41.70
36652;DHT22;53334;51.976;20.144;2023-03-01T01:21:29;25.60;41.80
36652;DHT22;53334;51.976;20.144;2023-03-01T01:24:03;25.60;41.80
36652;DHT22;53334;51.976;20.144;2023-03-01T01:26:37;25.60;41.80
36652;DHT22;53334;51.976;20.144;2023-03-01T01:29:11;25.60;41.80
36652;DHT22;53334;51.976;20.144;2023-03-01T01:31:44;25.60;41.90
36652;DHT22;53334;51.976;20.144;2023-03-01T01:34:19;25.60;41.90
36652;DHT22;53334;51.976;20.144;2023-03-01T01:36:52;25.60;41.80
36652;DHT22;53334;51.976;20.144;2023-03-01T01:39:26;25.60;41.80
36652;DHT22;53334;51.976;20.144;2023-03-01T01:41:59;25.60;41.80
36652;DHT22;53334;51.976;20.144;2023-03-01T01:44:32;25.60;41.90
36652;DHT22;53334;51.976;20.144;2023-03-01T01:47:07;25.60;41.80
36652;DHT22;53334;51.976;20.144;2023-03-01T01:49:46;25.60;41.80
36652;DHT22;53334;51.976;20.144;2023-03-01T01:52:21;25.60;41.80
36652;DHT22;53334;51.976;20.144;2023-03-01T01:54:56;25.60;41.80
36652;DHT22;53334;51.976;20.144;2023-03-01T01:57:32;25.60;41.70
36652;DHT22;53334;51.976;20.144;2023-03-01T02:00:07;25.60;41.80
36652;DHT22;53334;51.976;20.144;2023-03-01T02:02:44;25.60;41.80
36652;DHT22;53334;51.976;20.144;2023-03-01T02:05:20;25.60;41.80
36652;DHT22;53334;51.976;20.144;2023-03-01T02:07:55;25.60;41.80
36652;DHT22;53334;51.976;20.144;2023-03-01T02:10:29;25.60;41.80
36652;DHT22;53334;51.976;20.144;2023-03-01T02:13:06;25.60;41.90
36652;DHT22;53334;51.976;20.144;2023-03-01T02:15:39;25.60;41.90
36652;DHT22;53334;51.976;20.144;2023-03-01T02:18:14;25.60;41.90
36652;DHT22;53334;51.976;20.144;2023-03-01T02:20:54;25.60;41.90
36652;DHT22;53334;51.976;20.144;2023-03-01T02:23:30;25.60;41.90
36652;DHT22;53334;51.976;20.144;2023-03-01T02:26:05;25.60;41.90
36652;DHT22;53334;51.976;20.144;2023-03-01T02:28:42;25.50;41.80
36652;DHT22;53334;51.976;20.144;2023-03-01T02:31:16;25.60;41.90
36652;DHT22;53334;51.976;20.144;2023-03-01T02:34:09;25.60;41.80
36652;DHT22;53334;51.976;20.144;2023-03-01T02:36:44;25.60;41.80
36652;DHT22;53334;51.976;20.144;2023-03-01T02:39:18;25.60;41.80
36652;DHT22;53334;51.976;20.144;2023-03-01T02:41:53;25.60;41.80
36652;DHT22;53334;51.976;20.144;2023-03-01T02:44:28;25.60;41.80
36652;DHT22;53334;51.976;20.144;2023-03-01T02:47:02;25.60;41.70
36652;DHT22;53334;51.976;20.144;2023-03-01T02:49:36;25.60;41.80
36652;DHT22;53334;51.976;20.144;2023-03-01T02:52:23;25.50;41.70
36652;DHT22;53334;51.976;20.144;2023-03-01T02:55:01;25.60;41.70
36652;DHT22;53334;51.976;20.144;2023-03-01T02:57:35;25.60;41.70
36652;DHT22;53334;51.976;20.144;2023-03-01T03:00:11;25.50;41.70
36652;DHT22;53334;51.976;20.144;2023-03-01T03:02:52;25.60;41.70
36652;DHT22;53334;51.976;20.144;2023-03-01T03:05:28;25.60;41.70
36652;DHT22;53334;51.976;20.144;2023-03-01T03:08:02;25.50;41.70
36652;DHT22;53334;51.976;20.144;2023-03-01T03:10:40;25.60;41.70
36652;DHT22;53334;51.976;20.144;2023-03-01T03:13:14;25.60;41.70
36652;DHT22;53334;51.976;20.144;2023-03-01T03:15:50;25.50;41.60
36652;DHT22;53334;51.976;20.144;2023-03-01T03:18:23;25.60;41.70
36652;DHT22;53334;51.976;20.144;2023-03-01T03:21:01;25.60;41.70
36652;DHT22;53334;51.976;20.144;2023-03-01T03:23:34;25.60;41.60
36652;DHT22;53334;51.976;20.144;2023-03-01T03:26:07;25.60;41.60
36652;DHT22;53334;51.976;20.144;2023-03-01T03:28:41;25.50;41.60
36652;DHT22;53334;51.976;20.144;2023-03-01T03:31:15;25.50;41.50
36652;DHT22;53334;51.976;20.144;2023-03-01T03:33:49;25.50;41.50
36652;DHT22;53334;51.976;20.144;2023-03-01T03:36:22;25.50;41.50
36652;DHT22;53334;51.976;20.144;2023-03-01T03:38:56;25.60;41.60
36652;DHT22;53334;51.976;20.144;2023-03-01T03:41:29;25.60;41.60
36652;DHT22;53334;51.976;20.144;2023-03-01T03:44:02;25.50;41.50
36652;DHT22;53334;51.976;20.144;2023-03-01T03:46:36;25.60;41.60
36652;DHT22;53334;51.976;20.144;2023-03-01T03:49:09;25.60;41.60
36652;DHT22;53334;51.976;20.144;2023-03-01T03:51:44;25.60;41.60
36652;DHT22;53334;51.976;20.144;2023-03-01T03:54:18;25.60;41.60
36652;DHT22;53334;51.976;20.144;2023-03-01T03:56:51;25.60;41.60
36652;DHT22;53334;51.976;20.144;2023-03-01T03:59:24;25.60;41.60
36652;DHT22;53334;51.976;20.144;2023-03-01T04:01:59;25.60;41.60
36652;DHT22;53334;51.976;20.144;2023-03-01T04:04:32;25.60;41.60
36652;DHT22;53334;51.976;20.144;2023-03-01T04:07:05;25.60;41.50
36652;DHT22;53334;51.976;20.144;2023-03-01T04:09:38;25.60;41.50
36652;DHT22;53334;51.976;20.144;2023-03-01T04:12:11;25.50;41.40
36652;DHT22;53334;51.976;20.144;2023-03-01T04:14:45;25.60;41.50
36652;DHT22;53334;51.976;20.144;2023-03-01T04:17:21;25.60;41.50
36652;DHT22;53334;51.976;20.144;2023-03-01T04:19:54;25.50;41.40
36652;DHT22;53334;51.976;20.144;2023-03-01T04:22:27;25.50;41.40
36652;DHT22;53334;51.976;20.144;2023-03-01T04:25:01;25.50;41.50
36652;DHT22;53334;51.976;20.144;2023-03-01T04:27:36;25.50;41.40
36652;DHT22;53334;51.976;20.144;2023-03-01T04:30:10;25.50;41.40
36652;DHT22;53334;51.976;20.144;2023-03-01T04:32:44;25.50;41.50
36652;DHT22;53334;51.976;20.144;2023-03-01T04:35:17;25.50;41.40
36652;DHT22;53334;51.976;20.144;2023-03-01T04:37:51;25.50;41.50
36652;DHT22;53334;51.976;20.144;2023-03-01T04:40:24;25.50;41.50
36652;DHT22;53334;51.976;20.144;2023-03-01T04:42:57;25.50;41.50
36652;DHT22;53334;51.976;20.144;2023-03-01T04:45:31;25.50;41.50
36652;DHT22;53334;51.976;20.144;2023-03-01T04:48:07;25.50;41.40
36652;DHT22;53334;51.976;20.144;2023-03-01T04:50:40;25.50;41.40
36652;DHT22;53334;51.976;20.144;2023-03-01T04:53:13;25.50;41.40
36652;DHT22;53334;51.976;20.144;2023-03-01T04:55:46;25.50;41.40
36652;DHT22;53334;51.976;20.144;2023-03-01T04:58:19;25.50;41.40
36652;DHT22;53334;51.976;20.144;2023-03-01T05:00:53;25.50;41.40
36652;DHT22;53334;51.976;20.144;2023-03-01T05:03:27;25.50;41.40
36652;DHT22;53334;51.976;20.144;2023-03-01T05:06:01;25.50;41.40
36652;DHT22;53334;51.976;20.144;2023-03-01T05:08:34;25.50;41.30
36652;DHT22;53334;51.976;20.144;2023-03-01T05:11:09;25.50;41.40
36652;DHT22;53334;51.976;20.144;2023-03-01T05:13:42;25.50;41.30
36652;DHT22;53334;51.976;20.144;2023-03-01T05:16:16;25.50;41.30
36652;DHT22;53334;51.976;20.144;2023-03-01T05:18:51;25.50;41.90
36652;DHT22;53334;51.976;20.144;2023-03-01T05:21:24;25.50;41.40
36652;DHT22;53334;51.976;20.144;2023-03-01T05:23:57;25.50;41.40
36652;DHT22;53334;51.976;20.144;2023-03-01T05:26:30;25.50;41.30
36652;DHT22;53334;51.976;20.144;2023-03-01T05:29:03;25.50;41.40
36652;DHT22;53334;51.976;20.144;2023-03-01T05:31:36;25.50;41.40
36652;DHT22;53334;51.976;20.144;2023-03-01T05:34:11;25.50;42.00
36652;DHT22;53334;51.976;20.144;2023-03-01T05:36:44;25.50;42.00
36652;DHT22;53334;51.976;20.144;2023-03-01T05:39:17;25.50;41.40
36652;DHT22;53334;51.976;20.144;2023-03-01T05:41:51;25.50;41.30
36652;DHT22;53334;51.976;20.144;2023-03-01T05:44:25;25.50;41.40
36652;DHT22;53334;51.976;20.144;2023-03-01T05:46:58;25.50;41.40
36652;DHT22;53334;51.976;20.144;2023-03-01T05:49:33;25.50;41.40
36652;DHT22;53334;51.976;20.144;2023-03-01T05:52:07;25.50;41.30
36652;DHT22;53334;51.976;20.144;2023-03-01T05:54:41;25.50;41.40
36652;DHT22;53334;51.976;20.144;2023-03-01T05:57:14;25.50;41.30
36652;DHT22;53334;51.976;20.144;2023-03-01T05:59:47;25.50;41.40
36652;DHT22;53334;51.976;20.144;2023-03-01T06:02:20;25.50;41.40
36652;DHT22;53334;51.976;20.144;2023-03-01T06:04:54;25.50;41.40
36652;DHT22;53334;51.976;20.144;2023-03-01T06:07:28;25.50;41.40
36652;DHT22;53334;51.976;20.144;2023-03-01T06:10:01;25.50;41.40
36652;DHT22;53334;51.976;20.144;2023-03-01T06:12:35;25.50;41.40
36652;DHT22;53334;51.976;20.144;2023-03-01T06:15:09;25.50;41.40
36652;DHT22;53334;51.976;20.144;2023-03-01T06:17:44;25.50;41.50
36652;DHT22;53334;51.976;20.144;2023-03-01T06:20:20;25.50;41.50
36652;DHT22;53334;51.976;20.144;2023-03-01T06:22:54;25.50;41.50
36652;DHT22;53334;51.976;20.144;2023-03-01T06:25:27;25.50;41.50
36652;DHT22;53334;51.976;20.144;2023-03-01T06:28:01;25.50;41.40
36652;DHT22;53334;51.976;20.144;2023-03-01T06:30:34;25.50;41.40
36652;DHT22;53334;51.976;20.144;2023-03-01T06:33:07;25.50;41.50
36652;DHT22;53334;51.976;20.144;2023-03-01T06:35:41;25.50;41.50
36652;DHT22;53334;51.976;20.144;2023-03-01T06:38:15;25.50;41.50
36652;DHT22;53334;51.976;20.144;2023-03-01T06:40:53;25.50;41.50
36652;DHT22;53334;51.976;20.144;2023-03-01T06:43:26;25.50;41.50
36652;DHT22;53334;51.976;20.144;2023-03-01T06:45:59;25.50;41.50
36652;DHT22;53334;51.976;20.144;2023-03-01T06:48:33;25.50;41.40
36652;DHT22;53334;51.976;20.144;2023-03-01T06:51:08;25.50;41.40
36652;DHT22;53334;51.976;20.144;2023-03-01T06:53:41;25.50;41.50
36652;DHT22;53334;51.976;20.144;2023-03-01T06:56:14;25.50;41.20
36652;DHT22;53334;51.976;20.144;2023-03-01T06:58:47;25.50;41.50
36652;DHT22;53334;51.976;20.144;2023-03-01T07:01:20;25.50;41.80
36652;DHT22;53334;51.976;20.144;2023-03-01T07:03:53;25.50;41.70
36652;DHT22;53334;51.976;20.144;2023-03-01T07:06:28;25.50;41.80
36652;DHT22;53334;51.976;20.144;2023-03-01T07:09:01;25.60;42.00
36652;DHT22;53334;51.976;20.144;2023-03-01T07:11:35;25.60;42.10
36652;DHT22;53334;51.976;20.144;2023-03-01T07:14:08;25.60;42.10
36652;DHT22;53334;51.976;20.144;2023-03-01T07:16:41;25.60;42.30
36652;DHT22;53334;51.976;20.144;2023-03-01T07:19:14;25.60;42.40
36652;DHT22;53334;51.976;20.144;2023-03-01T07:21:49;25.60;42.40
36652;DHT22;53334;51.976;20.144;2023-03-01T07:24:22;25.60;42.50
36652;DHT22;53334;51.976;20.144;2023-03-01T07:26:55;25.70;42.70
36652;DHT22;53334;51.976;20.144;2023-03-01T07:29:28;25.70;42.70
36652;DHT22;53334;51.976;20.144;2023-03-01T07:32:01;25.70;42.80
36652;DHT22;53334;51.976;20.144;2023-03-01T07:34:35;25.70;42.70
36652;DHT22;53334;51.976;20.144;2023-03-01T07:37:09;25.70;42.80
36652;DHT22;53334;51.976;20.144;2023-03-01T07:39:42;25.80;42.90
36652;DHT22;53334;51.976;20.144;2023-03-01T07:42:15;25.80;42.90
36652;DHT22;53334;51.976;20.144;2023-03-01T07:44:48;25.80;42.90
36652;DHT22;53334;51.976;20.144;2023-03-01T07:47:21;25.80;42.70
36652;DHT22;53334;51.976;20.144;2023-03-01T07:49:55;25.80;39.70
36652;DHT22;53334;51.976;20.144;2023-03-01T07:52:29;25.80;33.00
36652;DHT22;53334;51.976;20.144;2023-03-01T07:55:02;25.70;29.70
36652;DHT22;53334;51.976;20.144;2023-03-01T07:57:36;25.60;28.60
36652;DHT22;53334;51.976;20.144;2023-03-01T08:00:10;25.50;29.10
36652;DHT22;53334;51.976;20.144;2023-03-01T08:02:44;25.50;29.90
36652;DHT22;53334;51.976;20.144;2023-03-01T08:05:17;25.50;32.90
36652;DHT22;53334;51.976;20.144;2023-03-01T08:07:52;25.50;33.10
36652;DHT22;53334;51.976;20.144;2023-03-01T08:10:25;25.50;34.50
36652;DHT22;53334;51.976;20.144;2023-03-01T08:12:58;25.50;32.70
36652;DHT22;53334;51.976;20.144;2023-03-01T08:15:31;25.50;32.50
36652;DHT22;53334;51.976;20.144;2023-03-01T08:18:04;25.50;32.40
36652;DHT22;53334;51.976;20.144;2023-03-01T08:20:38;25.50;32.50
36652;DHT22;53334;51.976;20.144;2023-03-01T08:23:12;25.50;32.40
36652;DHT22;53334;51.976;20.144;2023-03-01T08:25:46;25.50;32.40
36652;DHT22;53334;51.976;20.144;2023-03-01T08:28:19;25.50;33.20
36652;DHT22;53334;51.976;20.144;2023-03-01T08:30:52;25.50;33.40
36652;DHT22;53334;51.976;20.144;2023-03-01T08:33:25;25.50;34.40
36652;DHT22;53334;51.976;20.144;2023-03-01T08:36:02;25.60;34.70
36652;DHT22;53334;51.976;20.144;2023-03-01T08:38:37;25.70;35.00
36652;DHT22;53334;51.976;20.144;2023-03-01T08:41:10;25.70;35.10
36652;DHT22;53334;51.976;20.144;2023-03-01T08:43:43;25.70;35.20
36652;DHT22;53334;51.976;20.144;2023-03-01T08:46:17;25.70;35.00
36652;DHT22;53334;51.976;20.144;2023-03-01T08:48:50;25.70;34.80
36652;DHT22;53334;51.976;20.144;2023-03-01T08:51:23;25.70;35.00
36652;DHT22;53334;51.976;20.144;2023-03-01T08:53:58;25.80;34.70
36652;DHT22;53334;51.976;20.144;2023-03-01T08:56:32;25.80;34.50
36652;DHT22;53334;51.976;20.144;2023-03-01T08:59:06;25.80;34.60
36652;DHT22;53334;51.976;20.144;2023-03-01T09:01:40;25.80;34.80
36652;DHT22;53334;51.976;20.144;2023-03-01T09:04:15;25.80;35.10
36652;DHT22;53334;51.976;20.144;2023-03-01T09:06:48;25.80;35.20
36652;DHT22;53334;51.976;20.144;2023-03-01T09:09:23;25.90;35.40
36652;DHT22;53334;51.976;20.144;2023-03-01T09:11:56;25.90;35.50
36652;DHT22;53334;51.976;20.144;2023-03-01T09:14:29;25.90;35.70
36652;DHT22;53334;51.976;20.144;2023-03-01T09:17:02;25.90;35.70
36652;DHT22;53334;51.976;20.144;2023-03-01T09:19:36;25.90;35.90
36652;DHT22;53334;51.976;20.144;2023-03-01T09:22:09;26.00;35.90
36652;DHT22;53334;51.976;20.144;2023-03-01T09:24:44;26.00;36.00
36652;DHT22;53334;51.976;20.144;2023-03-01T09:27:17;26.00;35.90
36652;DHT22;53334;51.976;20.144;2023-03-01T09:29:50;26.00;36.10
36652;DHT22;53334;51.976;20.144;2023-03-01T09:32:23;26.00;36.10
36652;DHT22;53334;51.976;20.144;2023-03-01T09:34:57;26.00;36.20
36652;DHT22;53334;51.976;20.144;2023-03-01T09:37:38;26.00;36.40
36652;DHT22;53334;51.976;20.144;2023-03-01T09:40:16;26.00;36.50
36652;DHT22;53334;51.976;20.144;2023-03-01T09:42:51;26.00;36.60
36652;DHT22;53334;51.976;20.144;2023-03-01T09:45:27;26.00;36.70
36652;DHT22;53334;51.976;20.144;2023-03-01T09:48:00;26.00;36.90
36652;DHT22;53334;51.976;20.144;2023-03-01T09:50:35;26.10;37.20
36652;DHT22;53334;51.976;20.144;2023-03-01T09:53:09;26.00;37.50
36652;DHT22;53334;51.976;20.144;2023-03-01T09:55:46;26.10;37.80
36652;DHT22;53334;51.976;20.144;2023-03-01T09:58:35;26.10;38.10
36652;DHT22;53334;51.976;20.144;2023-03-01T10:01:27;26.10;38.10
36652;DHT22;53334;51.976;20.144;2023-03-01T10:04:19;26.20;38.40
36652;DHT22;53334;51.976;20.144;2023-03-01T10:07:00;26.20;38.20
36652;DHT22;53334;51.976;20.144;2023-03-01T10:09:36;26.20;38.00
36652;DHT22;53334;51.976;20.144;2023-03-01T10:12:12;26.20;38.20
36652;DHT22;53334;51.976;20.144;2023-03-01T10:14:48;26.20;38.20
36652;DHT22;53334;51.976;20.144;2023-03-01T10:17:24;26.20;38.40
36652;DHT22;53334;51.976;20.144;2023-03-01T10:20:01;26.20;38.50
36652;DHT22;53334;51.976;20.144;2023-03-01T10:22:43;26.20;38.60
36652;DHT22;53334;51.976;20.144;2023-03-01T10:25:31;26.20;38.60
36652;DHT22;53334;51.976;20.144;2023-03-01T10:28:15;26.20;38.90
36652;DHT22;53334;51.976;20.144;2023-03-01T10:30:49;26.20;39.00
36652;DHT22;53334;51.976;20.144;2023-03-01T10:33:23;26.20;39.30
36652;DHT22;53334;51.976;20.144;2023-03-01T10:35:57;26.20;39.80
36652;DHT22;53334;51.976;20.144;2023-03-01T10:38:33;26.20;40.10
36652;DHT22;53334;51.976;20.144;2023-03-01T10:41:19;26.20;40.60
36652;DHT22;53334;51.976;20.144;2023-03-01T10:43:57;26.20;40.90
36652;DHT22;53334;51.976;20.144;2023-03-01T10:46:32;26.20;41.70
36652;DHT22;53334;51.976;20.144;2023-03-01T10:49:06;26.20;41.90
36652;DHT22;53334;51.976;20.144;2023-03-01T10:51:40;26.20;41.90
36652;DHT22;53334;51.976;20.144;2023-03-01T10:54:15;26.20;41.60
36652;DHT22;53334;51.976;20.144;2023-03-01T10:56:49;26.20;41.50
36652;DHT22;53334;51.976;20.144;2023-03-01T10:59:27;26.20;40.90
36652;DHT22;53334;51.976;20.144;2023-03-01T11:02:03;26.20;40.20
36652;DHT22;53334;51.976;20.144;2023-03-01T11:04:57;26.20;39.80
36652;DHT22;53334;51.976;20.144;2023-03-01T11:07:31;26.20;39.50
36652;DHT22;53334;51.976;20.144;2023-03-01T11:10:20;26.20;39.00
36652;DHT22;53334;51.976;20.144;2023-03-01T11:12:53;26.20;38.80
36652;DHT22;53334;51.976;20.144;2023-03-01T11:15:39;26.20;38.30
36652;DHT22;53334;51.976;20.144;2023-03-01T11:18:18;26.20;38.30
36652;DHT22;53334;51.976;20.144;2023-03-01T11:20:54;26.20;37.50
36652;DHT22;53334;51.976;20.144;2023-03-01T11:23:28;26.10;36.70
36652;DHT22;53334;51.976;20.144;2023-03-01T11:26:02;26.10;35.80
36652;DHT22;53334;51.976;20.144;2023-03-01T11:28:38;26.10;36.40
36652;DHT22;53334;51.976;20.144;2023-03-01T11:31:14;26.10;35.30
36652;DHT22;53334;51.976;20.144;2023-03-01T11:33:50;26.10;36.00
36652;DHT22;53334;51.976;20.144;2023-03-01T11:36:28;26.10;34.70
36652;DHT22;53334;51.976;20.144;2023-03-01T11:39:03;26.10;34.70
36652;DHT22;53334;51.976;20.144;2023-03-01T11:41:40;26.10;33.30
36652;DHT22;53334;51.976;20.144;2023-03-01T11:44:16;26.10;34.50
36652;DHT22;53334;51.976;20.144;2023-03-01T11:46:56;26.00;33.80
36652;DHT22;53334;51.976;20.144;2023-03-01T11:49:52;26.00;33.20
36652;DHT22;53334;51.976;20.144;2023-03-01T11:52:29;26.00;33.90
36652;DHT22;53334;51.976;20.144;2023-03-01T11:55:14;26.00;32.50
36652;DHT22;53334;51.976;20.144;2023-03-01T11:57:53;26.00;32.70
36652;DHT22;53334;51.976;20.144;2023-03-01T12:00:37;26.00;34.10
36652;DHT22;53334;51.976;20.144;2023-03-01T12:03:22;26.00;34.00
36652;DHT22;53334;51.976;20.144;2023-03-01T12:08:46;26.00;34.10
36652;DHT22;53334;51.976;20.144;2023-03-01T12:11:24;26.10;34.10
36652;DHT22;53334;51.976;20.144;2023-03-01T12:14:10;26.00;34.80
36652;DHT22;53334;51.976;20.144;2023-03-01T12:16:54;26.10;35.80
36652;DHT22;53334;51.976;20.144;2023-03-01T12:19:36;26.10;37.40
36652;DHT22;53334;51.976;20.144;2023-03-01T12:22:24;26.10;38.00
36652;DHT22;53334;51.976;20.144;2023-03-01T12:25:08;26.10;38.20
36652;DHT22;53334;51.976;20.144;2023-03-01T12:30:42;26.00;38.70
36652;DHT22;53334;51.976;20.144;2023-03-01T12:33:23;26.10;38.10
36652;DHT22;53334;51.976;20.144;2023-03-01T12:38:56;26.10;38.00
36652;DHT22;53334;51.976;20.144;2023-03-01T12:41:42;26.10;37.90
36652;DHT22;53334;51.976;20.144;2023-03-01T12:47:26;26.10;37.80
36652;DHT22;53334;51.976;20.144;2023-03-01T12:50:05;26.10;37.90
36652;DHT22;53334;51.976;20.144;2023-03-01T12:52:39;26.10;37.60
36652;DHT22;53334;51.976;20.144;2023-03-01T12:55:22;26.10;37.50
36652;DHT22;53334;51.976;20.144;2023-03-01T12:58:00;26.10;37.30
36652;DHT22;53334;51.976;20.144;2023-03-01T13:00:35;26.10;36.90
36652;DHT22;53334;51.976;20.144;2023-03-01T13:03:17;26.10;36.90
36652;DHT22;53334;51.976;20.144;2023-03-01T13:05:56;26.10;36.70
36652;DHT22;53334;51.976;20.144;2023-03-01T13:08:36;26.10;37.30
36652;DHT22;53334;51.976;20.144;2023-03-01T13:11:14;26.10;37.00
36652;DHT22;53334;51.976;20.144;2023-03-01T13:13:49;26.10;37.30
36652;DHT22;53334;51.976;20.144;2023-03-01T13:16:38;26.10;37.50
36652;DHT22;53334;51.976;20.144;2023-03-01T13:19:15;26.00;37.50
36652;DHT22;53334;51.976;20.144;2023-03-01T13:21:49;26.10;37.80
36652;DHT22;53334;51.976;20.144;2023-03-01T13:24:23;26.00;37.50
36652;DHT22;53334;51.976;20.144;2023-03-01T13:29:46;26.10;37.40
36652;DHT22;53334;51.976;20.144;2023-03-01T13:32:20;26.00;37.50
36652;DHT22;53334;51.976;20.144;2023-03-01T13:35:07;26.00;38.30
36652;DHT22;53334;51.976;20.144;2023-03-01T13:38:12;26.00;37.80
36652;DHT22;53334;51.976;20.144;2023-03-01T13:41:05;26.00;37.90
36652;DHT22;53334;51.976;20.144;2023-03-01T13:43:40;26.00;37.90
36652;DHT22;53334;51.976;20.144;2023-03-01T13:46:17;26.00;37.90
36652;DHT22;53334;51.976;20.144;2023-03-01T13:48:52;26.00;37.80
36652;DHT22;53334;51.976;20.144;2023-03-01T13:51:26;26.00;37.80
36652;DHT22;53334;51.976;20.144;2023-03-01T13:54:01;26.00;37.90
36652;DHT22;53334;51.976;20.144;2023-03-01T13:56:36;26.00;37.90
36652;DHT22;53334;51.976;20.144;2023-03-01T13:59:13;25.90;38.10
36652;DHT22;53334;51.976;20.144;2023-03-01T14:01:52;26.00;38.10
36652;DHT22;53334;51.976;20.144;2023-03-01T14:04:27;25.90;37.80
36652;DHT22;53334;51.976;20.144;2023-03-01T14:07:08;25.90;37.90
36652;DHT22;53334;51.976;20.144;2023-03-01T14:09:43;25.90;38.20
36652;DHT22;53334;51.976;20.144;2023-03-01T14:12:23;25.90;38.40
36652;DHT22;53334;51.976;20.144;2023-03-01T14:14:59;26.00;38.70
36652;DHT22;53334;51.976;20.144;2023-03-01T14:17:42;25.90;38.50
36652;DHT22;53334;51.976;20.144;2023-03-01T14:20:18;25.90;38.30
36652;DHT22;53334;51.976;20.144;2023-03-01T14:22:52;25.90;37.70
36652;DHT22;53334;51.976;20.144;2023-03-01T14:25:27;25.90;38.00
36652;DHT22;53334;51.976;20.144;2023-03-01T14:28:03;25.90;38.10
36652;DHT22;53334;51.976;20.144;2023-03-01T14:30:38;25.90;37.90
36652;DHT22;53334;51.976;20.144;2023-03-01T14:33:20;25.90;37.50
36652;DHT22;53334;51.976;20.144;2023-03-01T14:35:55;25.80;37.10
36652;DHT22;53334;51.976;20.144;2023-03-01T14:38:31;25.90;37.70
36652;DHT22;53334;51.976;20.144;2023-03-01T14:41:07;25.80;37.70
36652;DHT22;53334;51.976;20.144;2023-03-01T14:43:43;25.90;37.30
36652;DHT22;53334;51.976;20.144;2023-03-01T14:46:19;25.90;37.50
36652;DHT22;53334;51.976;20.144;2023-03-01T14:48:55;25.90;37.70
36652;DHT22;53334;51.976;20.144;2023-03-01T14:51:30;25.90;37.80
36652;DHT22;53334;51.976;20.144;2023-03-01T14:54:04;25.90;37.90
36652;DHT22;53334;51.976;20.144;2023-03-01T14:56:43;25.90;37.90
36652;DHT22;53334;51.976;20.144;2023-03-01T14:59:18;25.90;37.90
36652;DHT22;53334;51.976;20.144;2023-03-01T15:01:53;25.90;37.90
36652;DHT22;53334;51.976;20.144;2023-03-01T15:04:29;25.90;38.60
36652;DHT22;53334;51.976;20.144;2023-03-01T15:07:05;25.90;38.10
36652;DHT22;53334;51.976;20.144;2023-03-01T15:09:39;25.90;38.10
36652;DHT22;53334;51.976;20.144;2023-03-01T15:12:31;26.00;38.30
36652;DHT22;53334;51.976;20.144;2023-03-01T15:18:13;25.90;38.40
36652;DHT22;53334;51.976;20.144;2023-03-01T15:20:49;25.90;38.60
36652;DHT22;53334;51.976;20.144;2023-03-01T15:23:23;25.90;38.50
36652;DHT22;53334;51.976;20.144;2023-03-01T15:25:57;25.90;38.60
36652;DHT22;53334;51.976;20.144;2023-03-01T15:28:31;25.90;38.70
36652;DHT22;53334;51.976;20.144;2023-03-01T15:31:18;26.00;38.70
36652;DHT22;53334;51.976;20.144;2023-03-01T15:33:52;25.90;38.70
36652;DHT22;53334;51.976;20.144;2023-03-01T15:36:42;25.90;38.70
36652;DHT22;53334;51.976;20.144;2023-03-01T15:39:33;25.90;38.90
36652;DHT22;53334;51.976;20.144;2023-03-01T15:42:10;25.90;39.00
36652;DHT22;53334;51.976;20.144;2023-03-01T15:44:44;25.90;39.10
36652;DHT22;53334;51.976;20.144;2023-03-01T15:47:22;25.90;39.10
36652;DHT22;53334;51.976;20.144;2023-03-01T15:49:56;25.90;39.10
36652;DHT22;53334;51.976;20.144;2023-03-01T15:52:33;25.90;39.10
36652;DHT22;53334;51.976;20.144;2023-03-01T15:55:14;25.90;39.20
36652;DHT22;53334;51.976;20.144;2023-03-01T15:57:48;25.90;39.20
36652;DHT22;53334;51.976;20.144;2023-03-01T16:00:22;25.90;39.20
36652;DHT22;53334;51.976;20.144;2023-03-01T16:02:56;25.90;39.20
36652;DHT22;53334;51.976;20.144;2023-03-01T16:05:30;25.90;39.20
36652;DHT22;53334;51.976;20.144;2023-03-01T16:08:05;25.90;39.30
36652;DHT22;53334;51.976;20.144;2023-03-01T16:10:39;25.90;39.30
36652;DHT22;53334;51.976;20.144;2023-03-01T16:13:13;25.90;39.30
36652;DHT22;53334;51.976;20.144;2023-03-01T16:15:46;25.90;39.20
36652;DHT22;53334;51.976;20.144;2023-03-01T16:18:19;25.90;39.30
36652;DHT22;53334;51.976;20.144;2023-03-01T16:20:53;25.90;39.40
36652;DHT22;53334;51.976;20.144;2023-03-01T16:23:28;25.90;39.40
36652;DHT22;53334;51.976;20.144;2023-03-01T16:26:02;25.90;39.20